sensor_id;sensor_type;location;lat;lon;timestamp;temperature;humidity
29939;DHT22;16799;50.844;5.304;2024-01-07T00:00:17;3.90;99.90
29939;DHT22;16799;50.844;5.304;2024-01-07T00:02:43;3.90;99.90
29939;DHT22;16799;50.844;5.304;2024-01-07T00:05:09;3.80;99.90
29939;DHT22;16799;50.844;5.304;2024-01-07T00:07:34;3.80;99.90
29939;DHT22;16799;50.844;5.304;2024-01-07T00:10:00;3.80;99.90
29939;DHT22;16799;50.844;5.304;2024-01-07T00:12:26;3.80;99.90
29939;DHT22;16799;50.844;5.304;2024-01-07T00:14:51;3.80;99.90
29939;DHT22;16799;50.844;5.304;2024-01-07T00:17:17;3.90;99.90
29939;DHT22;16799;50.844;5.304;2024-01-07T00:19:42;3.70;99.90
29939;DHT22;16799;50.844;5.304;2024-01-07T00:22:08;3.80;99.90
29939;DHT22;16799;50.844;5.304;2024-01-07T00:24:34;3.80;99.90
29939;DHT22;16799;50.844;5.304;2024-01-07T00:26:59;3.80;99.90
29939;DHT22;16799;50.844;5.304;2024-01-07T00:29:25;3.80;99.90
29939;DHT22;16799;50.844;5.304;2024-01-07T00:31:51;3.70;99.90
29939;DHT22;16799;50.844;5.304;2024-01-07T00:34:16;3.80;99.90
29939;DHT22;16799;50.844;5.304;2024-01-07T00:36:42;3.90;99.90
29939;DHT22;16799;50.844;5.304;2024-01-07T00:39:07;4.00;99.90
29939;DHT22;16799;50.844;5.304;2024-01-07T00:41:33;3.90;99.90
29939;DHT22;16799;50.844;5.304;2024-01-07T00:43:59;3.90;99.90
29939;DHT22;16799;50.844;5.304;2024-01-07T00:46:24;3.90;99.90
29939;DHT22;16799;50.844;5.304;2024-01-07T00:48:50;3.80;99.90
29939;DHT22;16799;50.844;5.304;2024-01-07T00:51:15;3.80;99.90
29939;DHT22;16799;50.844;5.304;2024-01-07T00:53:41;3.90;99.90
29939;DHT22;16799;50.844;5.304;2024-01-07T00:56:07;3.90;99.90
29939;DHT22;16799;50.844;5.304;2024-01-07T00:58:33;3.80;99.90
29939;DHT22;16799;50.844;5.304;2024-01-07T01:00:58;3.90;99.90
29939;DHT22;16799;50.844;5.304;2024-01-07T01:03:25;3.80;99.90
29939;DHT22;16799;50.844;5.304;2024-01-07T01:05:51;3.80;99.90
29939;DHT22;16799;50.844;5.304;2024-01-07T01:08:17;3.80;99.90
29939;DHT22;16799;50.844;5.304;2024-01-07T01:10:43;3.80;99.90
29939;DHT22;16799;50.844;5.304;2024-01-07T01:13:09;3.80;99.90
29939;DHT22;16799;50.844;5.304;2024-01-07T01:15:34;3.80;99.90
29939;DHT22;16799;50.844;5.304;2024-01-07T01:18:00;3.80;99.90
29939;DHT22;16799;50.844;5.304;2024-01-07T01:20:26;3.80;99.90
29939;DHT22;16799;50.844;5.304;2024-01-07T01:22:51;3.80;99.90
29939;DHT22;16799;50.844;5.304;2024-01-07T01:25:17;3.70;99.90
29939;DHT22;16799;50.844;5.304;2024-01-07T01:27:42;3.70;99.90
29939;DHT22;16799;50.844;5.304;2024-01-07T01:30:10;3.70;99.90
29939;DHT22;16799;50.844;5.304;2024-01-07T01:32:36;3.70;99.90
29939;DHT22;16799;50.844;5.304;2024-01-07T01:35:02;3.70;99.90
29939;DHT22;16799;50.844;5.304;2024-01-07T01:37:27;3.70;99.90
29939;DHT22;16799;50.844;5.304;2024-01-07T01:39:53;3.80;99.90
29939;DHT22;16799;50.844;5.304;2024-01-07T01:42:18;3.70;99.90
29939;DHT22;16799;50.844;5.304;2024-01-07T01:44:45;3.60;99.90
29939;DHT22;16799;50.844;5.304;2024-01-07T01:47:11;3.40;99.90
29939;DHT22;16799;50.844;5.304;2024-01-07T01:49:37;3.40;99.90
29939;DHT22;16799;50.844;5.304;2024-01-07T01:52:04;3.50;99.90
29939;DHT22;16799;50.844;5.304;2024-01-07T01:54:30;3.80;99.90
29939;DHT22;16799;50.844;5.304;2024-01-07T01:56:55;3.60;99.90
29939;DHT22;16799;50.844;5.304;2024-01-07T01:59:22;3.30;99.90
29939;DHT22;16799;50.844;5.304;2024-01-07T02:01:47;3.20;99.90
29939;DHT22;16799;50.844;5.304;2024-01-07T02:04:15;3.10;99.90
29939;DHT22;16799;50.844;5.304;2024-01-07T02:06:40;3.00;99.90
29939;DHT22;16799;50.844;5.304;2024-01-07T02:09:06;3.00;99.90
29939;DHT22;16799;50.844;5.304;2024-01-07T02:11:32;2.90;99.90
29939;DHT22;16799;50.844;5.304;2024-01-07T02:13:57;3.00;99.90
29939;DHT22;16799;50.844;5.304;2024-01-07T02:16:23;3.00;99.90
29939;DHT22;16799;50.844;5.304;2024-01-07T02:18:49;3.00;99.90
29939;DHT22;16799;50.844;5.304;2024-01-07T02:21:15;2.90;99.90
29939;DHT22;16799;50.844;5.304;2024-01-07T02:23:41;3.10;99.90
29939;DHT22;16799;50.844;5.304;2024-01-07T02:26:07;3.10;99.90
29939;DHT22;16799;50.844;5.304;2024-01-07T02:28:35;3.10;99.90
29939;DHT22;16799;50.844;5.304;2024-01-07T02:31:01;3.20;99.90
29939;DHT22;16799;50.844;5.304;2024-01-07T02:33:26;3.20;99.90
29939;DHT22;16799;50.844;5.304;2024-01-07T02:35:52;3.30;99.90
29939;DHT22;16799;50.844;5.304;2024-01-07T02:38:18;3.10;99.90
29939;DHT22;16799;50.844;5.304;2024-01-07T02:40:43;3.20;99.90
29939;DHT22;16799;50.844;5.304;2024-01-07T02:43:09;3.10;99.90
29939;DHT22;16799;50.844;5.304;2024-01-07T02:45:35;3.10;99.90
29939;DHT22;16799;50.844;5.304;2024-01-07T02:48:00;3.20;99.90
29939;DHT22;16799;50.844;5.304;2024-01-07T02:50:26;3.10;99.90
29939;DHT22;16799;50.844;5.304;2024-01-07T02:52:51;3.10;99.90
29939;DHT22;16799;50.844;5.304;2024-01-07T02:55:18;3.20;99.90
29939;DHT22;16799;50.844;5.304;2024-01-07T02:57:44;2.90;99.90
29939;DHT22;16799;50.844;5.304;2024-01-07T03:00:09;3.00;99.90
29939;DHT22;16799;50.844;5.304;2024-01-07T03:02:36;2.90;99.90
29939;DHT22;16799;50.844;5.304;2024-01-07T03:05:02;2.90;99.90
29939;DHT22;16799;50.844;5.304;2024-01-07T03:07:27;2.90;99.90
29939;DHT22;16799;50.844;5.304;2024-01-07T03:09:53;2.90;99.90
29939;DHT22;16799;50.844;5.304;2024-01-07T03:12:18;2.80;99.90
29939;DHT22;16799;50.844;5.304;2024-01-07T03:14:44;2.80;99.90
29939;DHT22;16799;50.844;5.304;2024-01-07T03:17:10;2.80;99.90
29939;DHT22;16799;50.844;5.304;2024-01-07T03:19:37;2.80;99.90
29939;DHT22;16799;50.844;5.304;2024-01-07T03:22:03;2.90;99.90
29939;DHT22;16799;50.844;5.304;2024-01-07T03:24:31;2.80;99.90
29939;DHT22;16799;50.844;5.304;2024-01-07T03:26:56;2.80;99.90
29939;DHT22;16799;50.844;5.304;2024-01-07T03:29:22;2.90;99.90
29939;DHT22;16799;50.844;5.304;2024-01-07T03:31:47;2.90;99.90
29939;DHT22;16799;50.844;5.304;2024-01-07T03:34:13;2.90;99.90
29939;DHT22;16799;50.844;5.304;2024-01-07T03:36:39;3.00;99.90
29939;DHT22;16799;50.844;5.304;2024-01-07T03:39:04;3.00;99.90
29939;DHT22;16799;50.844;5.304;2024-01-07T03:41:30;3.00;99.90
29939;DHT22;16799;50.844;5.304;2024-01-07T03:43:55;3.00;99.90
29939;DHT22;16799;50.844;5.304;2024-01-07T03:46:22;3.00;99.90
29939;DHT22;16799;50.844;5.304;2024-01-07T03:48:47;3.00;99.90
29939;DHT22;16799;50.844;5.304;2024-01-07T03:51:13;3.10;99.90
29939;DHT22;16799;50.844;5.304;2024-01-07T03:53:39;3.00;99.90
29939;DHT22;16799;50.844;5.304;2024-01-07T03:56:05;3.00;99.90
29939;DHT22;16799;50.844;5.304;2024-01-07T03:58:31;3.10;99.90
29939;DHT22;16799;50.844;5.304;2024-01-07T04:00:56;3.00;99.90
29939;DHT22;16799;50.844;5.304;2024-01-07T04:03:22;3.10;99.90
29939;DHT22;16799;50.844;5.304;2024-01-07T04:05:48;3.10;99.90
29939;DHT22;16799;50.844;5.304;2024-01-07T04:08:13;3.10;99.90
29939;DHT22;16799;50.844;5.304;2024-01-07T04:10:41;3.00;99.90
29939;DHT22;16799;50.844;5.304;2024-01-07T04:13:07;3.00;99.90
29939;DHT22;16799;50.844;5.304;2024-01-07T04:15:33;3.00;99.90
29939;DHT22;16799;50.844;5.304;2024-01-07T04:18:04;3.00;99.90
29939;DHT22;16799;50.844;5.304;2024-01-07T04:20:30;3.00;99.90
29939;DHT22;16799;50.844;5.304;2024-01-07T04:22:56;2.90;99.90
29939;DHT22;16799;50.844;5.304;2024-01-07T04:25:23;3.00;99.90
29939;DHT22;16799;50.844;5.304;2024-01-07T04:27:49;3.00;99.90
29939;DHT22;16799;50.844;5.304;2024-01-07T04:30:14;3.00;99.90
29939;DHT22;16799;50.844;5.304;2024-01-07T04:32:40;3.00;99.90
29939;DHT22;16799;50.844;5.304;2024-01-07T04:35:06;2.90;99.90
29939;DHT22;16799;50.844;5.304;2024-01-07T04:37:32;2.80;99.90
29939;DHT22;16799;50.844;5.304;2024-01-07T04:39:58;2.90;99.90
29939;DHT22;16799;50.844;5.304;2024-01-07T04:42:24;3.10;99.90
29939;DHT22;16799;50.844;5.304;2024-01-07T04:44:49;3.20;99.90
29939;DHT22;16799;50.844;5.304;2024-01-07T04:47:32;3.10;99.90
29939;DHT22;16799;50.844;5.304;2024-01-07T04:50:01;3.10;99.90
29939;DHT22;16799;50.844;5.304;2024-01-07T04:52:26;2.80;99.90
29939;DHT22;16799;50.844;5.304;2024-01-07T04:54:53;2.70;99.90
29939;DHT22;16799;50.844;5.304;2024-01-07T04:57:19;2.60;99.90
29939;DHT22;16799;50.844;5.304;2024-01-07T04:59:45;2.50;99.90
29939;DHT22;16799;50.844;5.304;2024-01-07T05:02:11;2.40;99.90
29939;DHT22;16799;50.844;5.304;2024-01-07T05:04:38;2.60;99.90
29939;DHT22;16799;50.844;5.304;2024-01-07T05:07:04;2.60;99.90
29939;DHT22;16799;50.844;5.304;2024-01-07T05:09:30;2.70;99.90
29939;DHT22;16799;50.844;5.304;2024-01-07T05:11:56;2.80;99.90
29939;DHT22;16799;50.844;5.304;2024-01-07T05:14:22;2.70;99.90
29939;DHT22;16799;50.844;5.304;2024-01-07T05:16:48;2.70;99.90
29939;DHT22;16799;50.844;5.304;2024-01-07T05:19:14;2.80;99.90
29939;DHT22;16799;50.844;5.304;2024-01-07T05:21:39;2.80;99.90
29939;DHT22;16799;50.844;5.304;2024-01-07T05:24:05;2.80;99.90
29939;DHT22;16799;50.844;5.304;2024-01-07T05:26:37;2.80;99.90
29939;DHT22;16799;50.844;5.304;2024-01-07T05:29:02;2.80;99.90
29939;DHT22;16799;50.844;5.304;2024-01-07T05:31:28;2.90;99.90
29939;DHT22;16799;50.844;5.304;2024-01-07T05:33:54;2.90;99.90
29939;DHT22;16799;50.844;5.304;2024-01-07T05:36:19;2.80;99.90
29939;DHT22;16799;50.844;5.304;2024-01-07T05:38:45;2.80;99.90
29939;DHT22;16799;50.844;5.304;2024-01-07T05:41:10;2.80;99.90
29939;DHT22;16799;50.844;5.304;2024-01-07T05:43:36;2.80;99.90
29939;DHT22;16799;50.844;5.304;2024-01-07T05:46:02;2.80;99.90
29939;DHT22;16799;50.844;5.304;2024-01-07T05:48:28;2.70;99.90
29939;DHT22;16799;50.844;5.304;2024-01-07T05:50:54;2.70;99.90
29939;DHT22;16799;50.844;5.304;2024-01-07T05:53:20;2.80;99.90
29939;DHT22;16799;50.844;5.304;2024-01-07T05:55:45;2.70;99.90
29939;DHT22;16799;50.844;5.304;2024-01-07T05:58:11;2.80;99.90
29939;DHT22;16799;50.844;5.304;2024-01-07T06:00:37;2.80;99.90
29939;DHT22;16799;50.844;5.304;2024-01-07T06:03:03;2.80;99.90
29939;DHT22;16799;50.844;5.304;2024-01-07T06:05:29;2.70;99.90
29939;DHT22;16799;50.844;5.304;2024-01-07T06:07:55;2.80;99.90
29939;DHT22;16799;50.844;5.304;2024-01-07T06:10:20;2.70;99.90
29939;DHT22;16799;50.844;5.304;2024-01-07T06:12:46;2.80;99.90
29939;DHT22;16799;50.844;5.304;2024-01-07T06:15:12;2.80;99.90
29939;DHT22;16799;50.844;5.304;2024-01-07T06:17:37;2.70;99.90
29939;DHT22;16799;50.844;5.304;2024-01-07T06:20:04;2.80;99.90
29939;DHT22;16799;50.844;5.304;2024-01-07T06:22:31;2.70;99.90
29939;DHT22;16799;50.844;5.304;2024-01-07T06:24:56;2.70;99.90
29939;DHT22;16799;50.844;5.304;2024-01-07T06:27:22;2.50;99.90
29939;DHT22;16799;50.844;5.304;2024-01-07T06:29:47;2.60;99.90
29939;DHT22;16799;50.844;5.304;2024-01-07T06:32:13;2.60;99.90
29939;DHT22;16799;50.844;5.304;2024-01-07T06:34:39;2.60;99.90
29939;DHT22;16799;50.844;5.304;2024-01-07T06:37:05;2.50;99.90
29939;DHT22;16799;50.844;5.304;2024-01-07T06:39:31;2.60;99.90
29939;DHT22;16799;50.844;5.304;2024-01-07T06:41:57;2.60;99.90
29939;DHT22;16799;50.844;5.304;2024-01-07T06:44:23;2.60;99.90
29939;DHT22;16799;50.844;5.304;2024-01-07T06:46:48;2.60;99.90
29939;DHT22;16799;50.844;5.304;2024-01-07T06:49:14;2.60;99.90
29939;DHT22;16799;50.844;5.304;2024-01-07T06:51:39;2.60;99.90
29939;DHT22;16799;50.844;5.304;2024-01-07T06:54:05;2.60;99.90
29939;DHT22;16799;50.844;5.304;2024-01-07T06:56:31;2.50;99.90
29939;DHT22;16799;50.844;5.304;2024-01-07T06:58:56;2.40;99.90
29939;DHT22;16799;50.844;5.304;2024-01-07T07:01:22;2.50;99.90
29939;DHT22;16799;50.844;5.304;2024-01-07T07:03:51;2.50;99.90
29939;DHT22;16799;50.844;5.304;2024-01-07T07:06:17;2.50;99.90
29939;DHT22;16799;50.844;5.304;2024-01-07T07:08:43;2.50;99.90
29939;DHT22;16799;50.844;5.304;2024-01-07T07:11:09;2.50;99.90
29939;DHT22;16799;50.844;5.304;2024-01-07T07:13:34;2.40;99.90
29939;DHT22;16799;50.844;5.304;2024-01-07T07:16:00;2.30;99.90
29939;DHT22;16799;50.844;5.304;2024-01-07T07:18:26;2.40;99.90
29939;DHT22;16799;50.844;5.304;2024-01-07T07:20:52;2.40;99.90
29939;DHT22;16799;50.844;5.304;2024-01-07T07:23:18;2.50;99.90
29939;DHT22;16799;50.844;5.304;2024-01-07T07:25:44;2.60;99.90
29939;DHT22;16799;50.844;5.304;2024-01-07T07:28:09;2.50;99.90
29939;DHT22;16799;50.844;5.304;2024-01-07T07:30:35;2.50;99.90
29939;DHT22;16799;50.844;5.304;2024-01-07T07:33:02;2.50;99.90
29939;DHT22;16799;50.844;5.304;2024-01-07T07:35:27;2.40;99.90
29939;DHT22;16799;50.844;5.304;2024-01-07T07:37:54;2.40;99.90
29939;DHT22;16799;50.844;5.304;2024-01-07T07:40:19;2.40;99.90
29939;DHT22;16799;50.844;5.304;2024-01-07T07:42:45;2.50;99.90
29939;DHT22;16799;50.844;5.304;2024-01-07T07:45:10;2.40;99.90
29939;DHT22;16799;50.844;5.304;2024-01-07T07:47:36;2.30;99.90
29939;DHT22;16799;50.844;5.304;2024-01-07T07:50:02;2.40;99.90
29939;DHT22;16799;50.844;5.304;2024-01-07T07:52:29;2.40;99.90
29939;DHT22;16799;50.844;5.304;2024-01-07T07:54:54;2.40;99.90
29939;DHT22;16799;50.844;5.304;2024-01-07T07:57:21;2.50;99.90
29939;DHT22;16799;50.844;5.304;2024-01-07T07:59:48;2.50;99.90
29939;DHT22;16799;50.844;5.304;2024-01-07T08:02:14;2.50;99.90
29939;DHT22;16799;50.844;5.304;2024-01-07T08:04:40;2.50;99.90
29939;DHT22;16799;50.844;5.304;2024-01-07T08:07:09;2.60;99.90
29939;DHT22;16799;50.844;5.304;2024-01-07T08:09:35;2.60;99.90
29939;DHT22;16799;50.844;5.304;2024-01-07T08:12:05;2.60;99.90
29939;DHT22;16799;50.844;5.304;2024-01-07T08:14:31;2.60;99.90
29939;DHT22;16799;50.844;5.304;2024-01-07T08:16:57;2.60;99.90
29939;DHT22;16799;50.844;5.304;2024-01-07T08:19:23;2.50;99.90
29939;DHT22;16799;50.844;5.304;2024-01-07T08:21:48;2.40;99.90
29939;DHT22;16799;50.844;5.304;2024-01-07T08:24:14;2.50;99.90
29939;DHT22;16799;50.844;5.304;2024-01-07T08:26:39;2.40;99.90
29939;DHT22;16799;50.844;5.304;2024-01-07T08:29:05;2.30;99.90
29939;DHT22;16799;50.844;5.304;2024-01-07T08:31:31;2.40;99.90
29939;DHT22;16799;50.844;5.304;2024-01-07T08:33:57;2.40;99.90
29939;DHT22;16799;50.844;5.304;2024-01-07T08:36:23;2.40;99.90
29939;DHT22;16799;50.844;5.304;2024-01-07T08:38:49;2.40;99.90
29939;DHT22;16799;50.844;5.304;2024-01-07T08:41:18;2.40;99.90
29939;DHT22;16799;50.844;5.304;2024-01-07T08:43:43;2.40;99.90
29939;DHT22;16799;50.844;5.304;2024-01-07T08:46:10;2.30;99.90
29939;DHT22;16799;50.844;5.304;2024-01-07T08:48:36;2.30;99.90
29939;DHT22;16799;50.844;5.304;2024-01-07T08:51:02;2.30;99.90
29939;DHT22;16799;50.844;5.304;2024-01-07T08:53:28;2.10;99.90
29939;DHT22;16799;50.844;5.304;2024-01-07T08:55:54;2.20;99.90
29939;DHT22;16799;50.844;5.304;2024-01-07T08:58:20;2.20;99.90
29939;DHT22;16799;50.844;5.304;2024-01-07T09:00:46;2.30;99.90
29939;DHT22;16799;50.844;5.304;2024-01-07T09:03:11;2.40;99.90
29939;DHT22;16799;50.844;5.304;2024-01-07T09:05:37;2.50;99.90
29939;DHT22;16799;50.844;5.304;2024-01-07T09:08:03;2.60;99.90
29939;DHT22;16799;50.844;5.304;2024-01-07T09:10:28;2.40;99.90
29939;DHT22;16799;50.844;5.304;2024-01-07T09:12:54;2.40;99.90
29939;DHT22;16799;50.844;5.304;2024-01-07T09:15:20;2.40;99.90
29939;DHT22;16799;50.844;5.304;2024-01-07T09:17:46;2.30;99.90
29939;DHT22;16799;50.844;5.304;2024-01-07T09:20:12;2.10;99.90
29939;DHT22;16799;50.844;5.304;2024-01-07T09:22:38;2.00;99.90
29939;DHT22;16799;50.844;5.304;2024-01-07T09:25:05;1.80;99.90
29939;DHT22;16799;50.844;5.304;2024-01-07T09:27:32;1.90;99.90
29939;DHT22;16799;50.844;5.304;2024-01-07T09:29:57;1.90;99.90
29939;DHT22;16799;50.844;5.304;2024-01-07T09:32:23;2.00;99.90
29939;DHT22;16799;50.844;5.304;2024-01-07T09:34:49;2.20;99.90
29939;DHT22;16799;50.844;5.304;2024-01-07T09:37:14;2.30;99.90
29939;DHT22;16799;50.844;5.304;2024-01-07T09:39:41;2.30;99.90
29939;DHT22;16799;50.844;5.304;2024-01-07T09:42:14;2.40;99.90
29939;DHT22;16799;50.844;5.304;2024-01-07T09:44:41;2.20;99.90
29939;DHT22;16799;50.844;5.304;2024-01-07T09:47:10;2.30;99.90
29939;DHT22;16799;50.844;5.304;2024-01-07T09:49:37;2.30;99.90
29939;DHT22;16799;50.844;5.304;2024-01-07T09:52:04;2.40;99.90
29939;DHT22;16799;50.844;5.304;2024-01-07T09:54:30;2.40;99.90
29939;DHT22;16799;50.844;5.304;2024-01-07T09:57:01;2.10;99.90
29939;DHT22;16799;50.844;5.304;2024-01-07T09:59:30;2.10;99.90
29939;DHT22;16799;50.844;5.304;2024-01-07T10:01:56;2.20;99.90
29939;DHT22;16799;50.844;5.304;2024-01-07T10:04:26;2.30;99.90
29939;DHT22;16799;50.844;5.304;2024-01-07T10:06:52;2.30;99.90
29939;DHT22;16799;50.844;5.304;2024-01-07T10:09:21;2.40;99.90
29939;DHT22;16799;50.844;5.304;2024-01-07T10:11:47;2.50;99.90
29939;DHT22;16799;50.844;5.304;2024-01-07T10:14:13;2.50;99.90
29939;DHT22;16799;50.844;5.304;2024-01-07T10:16:39;2.50;99.90
29939;DHT22;16799;50.844;5.304;2024-01-07T10:19:05;2.40;99.90
29939;DHT22;16799;50.844;5.304;2024-01-07T10:21:30;2.40;99.90
29939;DHT22;16799;50.844;5.304;2024-01-07T10:24:10;2.30;99.90
29939;DHT22;16799;50.844;5.304;2024-01-07T10:26:38;2.30;99.90
29939;DHT22;16799;50.844;5.304;2024-01-07T10:29:04;2.40;99.90
29939;DHT22;16799;50.844;5.304;2024-01-07T10:31:31;2.60;99.90
29939;DHT22;16799;50.844;5.304;2024-01-07T10:33:57;2.60;99.90
29939;DHT22;16799;50.844;5.304;2024-01-07T10:36:24;2.50;99.90
29939;DHT22;16799;50.844;5.304;2024-01-07T10:38:50;2.40;99.90
29939;DHT22;16799;50.844;5.304;2024-01-07T10:41:19;2.40;99.90
29939;DHT22;16799;50.844;5.304;2024-01-07T10:43:48;2.40;99.90
29939;DHT22;16799;50.844;5.304;2024-01-07T10:46:15;2.50;99.90
29939;DHT22;16799;50.844;5.304;2024-01-07T10:49:00;2.60;99.90
29939;DHT22;16799;50.844;5.304;2024-01-07T10:51:28;2.70;99.90
29939;DHT22;16799;50.844;5.304;2024-01-07T10:53:56;2.80;99.90
29939;DHT22;16799;50.844;5.304;2024-01-07T10:56:23;2.80;99.90
29939;DHT22;16799;50.844;5.304;2024-01-07T10:58:53;2.70;99.90
29939;DHT22;16799;50.844;5.304;2024-01-07T11:01:22;2.60;99.90
29939;DHT22;16799;50.844;5.304;2024-01-07T11:06:37;2.50;99.90
29939;DHT22;16799;50.844;5.304;2024-01-07T11:09:21;2.60;99.90
29939;DHT22;16799;50.844;5.304;2024-01-07T11:11:49;2.50;99.90
29939;DHT22;16799;50.844;5.304;2024-01-07T11:17:00;2.40;99.90
29939;DHT22;16799;50.844;5.304;2024-01-07T11:19:26;2.30;99.90
29939;DHT22;16799;50.844;5.304;2024-01-07T11:21:51;2.30;99.90
29939;DHT22;16799;50.844;5.304;2024-01-07T11:24:38;2.40;99.90
29939;DHT22;16799;50.844;5.304;2024-01-07T11:27:03;2.20;99.90
29939;DHT22;16799;50.844;5.304;2024-01-07T11:29:31;2.30;99.90
29939;DHT22;16799;50.844;5.304;2024-01-07T11:31:57;2.30;99.90
29939;DHT22;16799;50.844;5.304;2024-01-07T11:34:43;2.30;99.90
29939;DHT22;16799;50.844;5.304;2024-01-07T11:37:12;2.20;99.90
29939;DHT22;16799;50.844;5.304;2024-01-07T11:39:45;2.10;99.90
29939;DHT22;16799;50.844;5.304;2024-01-07T11:42:11;2.10;99.90
29939;DHT22;16799;50.844;5.304;2024-01-07T11:44:52;2.20;99.90
29939;DHT22;16799;50.844;5.304;2024-01-07T11:47:19;2.30;99.90
29939;DHT22;16799;50.844;5.304;2024-01-07T11:49:46;2.30;99.90
29939;DHT22;16799;50.844;5.304;2024-01-07T11:52:12;2.10;99.90
29939;DHT22;16799;50.844;5.304;2024-01-07T11:54:38;2.10;99.90
29939;DHT22;16799;50.844;5.304;2024-01-07T11:57:05;2.00;99.90
29939;DHT22;16799;50.844;5.304;2024-01-07T11:59:31;1.80;99.90
29939;DHT22;16799;50.844;5.304;2024-01-07T12:01:57;1.80;99.90
29939;DHT22;16799;50.844;5.304;2024-01-07T12:04:22;1.80;99.90
29939;DHT22;16799;50.844;5.304;2024-01-07T12:06:48;1.80;99.90
29939;DHT22;16799;50.844;5.304;2024-01-07T12:09:15;1.90;99.90
29939;DHT22;16799;50.844;5.304;2024-01-07T12:11:41;1.90;99.90
29939;DHT22;16799;50.844;5.304;2024-01-07T12:14:08;2.00;99.90
29939;DHT22;16799;50.844;5.304;2024-01-07T12:16:35;2.10;99.90
29939;DHT22;16799;50.844;5.304;2024-01-07T12:19:00;1.90;99.90
29939;DHT22;16799;50.844;5.304;2024-01-07T12:21:26;1.70;99.90
29939;DHT22;16799;50.844;5.304;2024-01-07T12:23:54;1.80;99.90
29939;DHT22;16799;50.844;5.304;2024-01-07T12:26:20;1.90;99.90
29939;DHT22;16799;50.844;5.304;2024-01-07T12:28:55;2.00;99.90
29939;DHT22;16799;50.844;5.304;2024-01-07T12:31:23;2.10;99.90
29939;DHT22;16799;50.844;5.304;2024-01-07T12:33:49;2.00;99.90
29939;DHT22;16799;50.844;5.304;2024-01-07T12:36:14;1.90;99.90
29939;DHT22;16799;50.844;5.304;2024-01-07T12:38:40;2.00;99.90
29939;DHT22;16799;50.844;5.304;2024-01-07T12:41:06;1.80;99.90
29939;DHT22;16799;50.844;5.304;2024-01-07T12:43:32;1.80;99.90
29939;DHT22;16799;50.844;5.304;2024-01-07T12:45:58;1.80;99.90
29939;DHT22;16799;50.844;5.304;2024-01-07T12:48:30;1.80;99.90
29939;DHT22;16799;50.844;5.304;2024-01-07T12:50:55;1.90;99.90
29939;DHT22;16799;50.844;5.304;2024-01-07T12:53:21;1.80;99.90
29939;DHT22;16799;50.844;5.304;2024-01-07T12:55:47;1.80;99.90
29939;DHT22;16799;50.844;5.304;2024-01-07T12:58:12;1.90;99.90
29939;DHT22;16799;50.844;5.304;2024-01-07T13:00:38;1.80;99.90
29939;DHT22;16799;50.844;5.304;2024-01-07T13:03:06;1.70;99.90
29939;DHT22;16799;50.844;5.304;2024-01-07T13:05:33;1.80;99.90
29939;DHT22;16799;50.844;5.304;2024-01-07T13:07:59;1.70;99.90
29939;DHT22;16799;50.844;5.304;2024-01-07T13:10:25;1.80;99.90
29939;DHT22;16799;50.844;5.304;2024-01-07T13:12:51;1.60;99.90
29939;DHT22;16799;50.844;5.304;2024-01-07T13:15:17;1.60;99.90
29939;DHT22;16799;50.844;5.304;2024-01-07T13:17:43;1.60;99.90
29939;DHT22;16799;50.844;5.304;2024-01-07T13:20:08;1.50;99.90
29939;DHT22;16799;50.844;5.304;2024-01-07T13:22:37;1.60;99.90
29939;DHT22;16799;50.844;5.304;2024-01-07T13:25:05;1.60;99.90
29939;DHT22;16799;50.844;5.304;2024-01-07T13:27:30;1.60;99.90
29939;DHT22;16799;50.844;5.304;2024-01-07T13:29:56;1.70;99.90
29939;DHT22;16799;50.844;5.304;2024-01-07T13:32:22;1.70;99.90
29939;DHT22;16799;50.844;5.304;2024-01-07T13:34:48;1.70;99.90
29939;DHT22;16799;50.844;5.304;2024-01-07T13:37:13;1.70;99.90
29939;DHT22;16799;50.844;5.304;2024-01-07T13:39:39;1.60;99.90
29939;DHT22;16799;50.844;5.304;2024-01-07T13:42:05;1.60;99.90
29939;DHT22;16799;50.844;5.304;2024-01-07T13:44:31;1.70;99.90
29939;DHT22;16799;50.844;5.304;2024-01-07T13:47:00;1.70;99.90
29939;DHT22;16799;50.844;5.304;2024-01-07T13:49:27;1.70;99.90
29939;DHT22;16799;50.844;5.304;2024-01-07T13:51:53;1.70;99.90
29939;DHT22;16799;50.844;5.304;2024-01-07T13:54:20;1.70;99.90
29939;DHT22;16799;50.844;5.304;2024-01-07T13:56:46;1.70;99.90
29939;DHT22;16799;50.844;5.304;2024-01-07T13:59:12;1.80;99.90
29939;DHT22;16799;50.844;5.304;2024-01-07T14:01:38;1.60;99.90
29939;DHT22;16799;50.844;5.304;2024-01-07T14:04:04;1.50;99.90
29939;DHT22;16799;50.844;5.304;2024-01-07T14:06:30;1.60;99.90
29939;DHT22;16799;50.844;5.304;2024-01-07T14:08:57;1.60;99.90
29939;DHT22;16799;50.844;5.304;2024-01-07T14:11:23;1.60;99.90
29939;DHT22;16799;50.844;5.304;2024-01-07T14:13:49;1.70;99.90
29939;DHT22;16799;50.844;5.304;2024-01-07T14:16:14;1.50;99.90
29939;DHT22;16799;50.844;5.304;2024-01-07T14:18:40;1.60;99.90
29939;DHT22;16799;50.844;5.304;2024-01-07T14:21:06;1.60;99.90
29939;DHT22;16799;50.844;5.304;2024-01-07T14:23:33;1.60;99.90
29939;DHT22;16799;50.844;5.304;2024-01-07T14:25:59;1.60;99.90
29939;DHT22;16799;50.844;5.304;2024-01-07T14:28:25;1.60;99.90
29939;DHT22;16799;50.844;5.304;2024-01-07T14:30:51;1.60;99.90
29939;DHT22;16799;50.844;5.304;2024-01-07T14:33:17;1.50;99.90
29939;DHT22;16799;50.844;5.304;2024-01-07T14:35:43;1.60;99.90
29939;DHT22;16799;50.844;5.304;2024-01-07T14:38:08;1.50;99.90
29939;DHT22;16799;50.844;5.304;2024-01-07T14:40:34;1.40;99.90
29939;DHT22;16799;50.844;5.304;2024-01-07T14:43:00;1.30;99.90
29939;DHT22;16799;50.844;5.304;2024-01-07T14:45:28;1.30;99.90
29939;DHT22;16799;50.844;5.304;2024-01-07T14:47:54;1.40;99.90
29939;DHT22;16799;50.844;5.304;2024-01-07T14:50:20;1.30;99.90
29939;DHT22;16799;50.844;5.304;2024-01-07T14:52:47;1.30;99.90
29939;DHT22;16799;50.844;5.304;2024-01-07T14:55:13;1.40;99.90
29939;DHT22;16799;50.844;5.304;2024-01-07T14:57:40;1.40;99.90
29939;DHT22;16799;50.844;5.304;2024-01-07T15:00:06;1.10;99.90
29939;DHT22;16799;50.844;5.304;2024-01-07T15:02:33;1.10;99.90
29939;DHT22;16799;50.844;5.304;2024-01-07T15:04:59;1.20;99.90
29939;DHT22;16799;50.844;5.304;2024-01-07T15:07:25;1.10;99.90
29939;DHT22;16799;50.844;5.304;2024-01-07T15:09:50;1.10;99.90
29939;DHT22;16799;50.844;5.304;2024-01-07T15:12:16;1.10;99.90
29939;DHT22;16799;50.844;5.304;2024-01-07T15:14:41;1.00;99.90
29939;DHT22;16799;50.844;5.304;2024-01-07T15:17:07;1.00;99.90
29939;DHT22;16799;50.844;5.304;2024-01-07T15:19:33;1.10;99.90
29939;DHT22;16799;50.844;5.304;2024-01-07T15:21:59;1.10;99.90
29939;DHT22;16799;50.844;5.304;2024-01-07T15:24:25;1.10;99.90
29939;DHT22;16799;50.844;5.304;2024-01-07T15:26:50;1.20;99.90
29939;DHT22;16799;50.844;5.304;2024-01-07T15:29:16;1.10;99.90
29939;DHT22;16799;50.844;5.304;2024-01-07T15:31:43;1.10;99.90
29939;DHT22;16799;50.844;5.304;2024-01-07T15:34:09;1.00;99.90
29939;DHT22;16799;50.844;5.304;2024-01-07T15:36:35;1.00;99.90
29939;DHT22;16799;50.844;5.304;2024-01-07T15:39:03;0.90;99.90
29939;DHT22;16799;50.844;5.304;2024-01-07T15:41:28;0.90;99.90
29939;DHT22;16799;50.844;5.304;2024-01-07T15:43:55;0.90;99.90